Weather at Çiğli Airport

Public forecast

Using degrees Celsius for public forecast. Weather courtesy of forecast.io.

Current aviation weather report (METAR) for Çiğli Airport

2024/02/28 11:50 (retrieved 39 minutes ago)

LTBL 281150Z VRB02KT 9999 FEW035 SCT100 BKN200 20/10 Q1021 NOSIG RMK RWY17 14006KT 070V180

Closest aviation forecast (TAF) to Çiğli Airport

Closest forecast is Adnan Menderes International Airport, 14.9 nm (27.7 km) SSE.

2024/02/28 12:00 (retrieved 29 minutes ago)

TAF LTBJ 281040Z 2812/2912 VRB02KT CAVOK TEMPO 2812/2815 17012KT